createdAt,value
2023-03-13T00:01:31.566Z,8.25
2023-03-13T00:03:59.982Z,11.98
2023-03-13T00:06:32.143Z,12.00
2023-03-13T00:09:02.270Z,12.75
2023-03-13T00:11:30.745Z,8.50
2023-03-13T00:14:00.207Z,7.80
2023-03-13T00:16:29.726Z,9.57
2023-03-13T00:18:59.127Z,12.38
2023-03-13T00:21:29.412Z,7.95
2023-03-13T00:24:01.156Z,9.60
2023-03-13T00:26:30.306Z,10.00
2023-03-13T00:28:59.084Z,7.72
2023-03-13T00:31:29.279Z,11.52
2023-03-13T00:34:00.399Z,12.20
2023-03-13T00:36:30.384Z,10.65
2023-03-13T00:38:59.249Z,10.40
2023-03-13T00:41:31.435Z,11.48
2023-03-13T00:44:00.365Z,8.23
2023-03-13T00:46:30.168Z,9.80
2023-03-13T00:48:59.049Z,7.55
2023-03-13T00:51:28.082Z,7.97
2023-03-13T00:53:57.069Z,8.40
2023-03-13T00:56:25.279Z,6.93
2023-03-13T00:58:55.277Z,5.68
2023-03-13T01:01:25.423Z,7.38
2023-03-13T01:03:56.544Z,4.93
2023-03-13T01:06:27.338Z,4.32
2023-03-13T01:08:59.130Z,4.60
2023-03-13T01:11:30.741Z,4.50
2023-03-13T01:14:02.486Z,2.45
2023-03-13T01:16:32.226Z,4.75
2023-03-13T01:19:02.575Z,4.60
2023-03-13T01:21:31.432Z,6.95
2023-03-13T01:23:59.817Z,3.15
2023-03-13T01:26:28.984Z,2.78
2023-03-13T01:28:57.617Z,1.75
2023-03-13T01:31:29.864Z,2.25
2023-03-13T01:34:01.476Z,2.92
2023-03-13T01:36:30.512Z,6.95
2023-03-13T01:39:01.567Z,3.58
2023-03-13T01:41:32.117Z,5.70
2023-03-13T01:44:00.459Z,2.35
2023-03-13T01:46:35.508Z,2.05
2023-03-13T01:49:10.709Z,2.40
2023-03-13T01:51:58.815Z,2.90
2023-03-13T01:54:32.138Z,3.15
2023-03-13T01:57:05.782Z,2.45
2023-03-13T01:59:38.644Z,1.55
2023-03-13T02:02:09.043Z,2.60
2023-03-13T02:04:40.347Z,4.32
2023-03-13T02:07:11.878Z,1.65
2023-03-13T02:09:43.104Z,2.58
2023-03-13T02:12:14.444Z,2.80
2023-03-13T02:14:45.636Z,2.97
2023-03-13T02:17:15.452Z,4.55
2023-03-13T02:19:47.062Z,3.85
2023-03-13T02:22:22.865Z,2.00
2023-03-13T02:24:57.656Z,2.10
2023-03-13T02:27:28.238Z,3.28
2023-03-13T02:29:57.064Z,3.15
2023-03-13T02:32:26.446Z,3.65
2023-03-13T02:34:59.284Z,2.55
2023-03-13T02:37:30.442Z,4.65
2023-03-13T02:40:02.346Z,2.90
2023-03-13T02:42:32.968Z,3.67
2023-03-13T02:45:02.295Z,3.35
2023-03-13T02:47:30.482Z,2.50
2023-03-13T02:49:58.739Z,2.95
2023-03-13T02:52:31.173Z,2.40
2023-03-13T02:55:03.829Z,1.45
2023-03-13T02:57:33.984Z,4.32
2023-03-13T03:00:02.414Z,1.98
2023-03-13T03:02:31.999Z,3.72
2023-03-13T03:05:00.659Z,2.30
2023-03-13T03:07:29.969Z,2.08
2023-03-13T03:09:58.333Z,4.03
2023-03-13T03:12:26.612Z,3.38
2023-03-13T03:14:56.318Z,2.63
2023-03-13T03:17:25.565Z,5.00
2023-03-13T03:19:55.003Z,2.60
2023-03-13T03:22:23.275Z,6.53
2023-03-13T03:24:53.094Z,3.17
2023-03-13T03:27:21.241Z,1.95
2023-03-13T03:29:54.167Z,4.30
2023-03-13T03:32:24.347Z,2.85
2023-03-13T03:34:52.618Z,2.97
2023-03-13T03:37:20.809Z,4.10
2023-03-13T03:39:48.991Z,2.47
2023-03-13T03:42:17.224Z,3.58
2023-03-13T03:44:45.575Z,2.67
2023-03-13T03:47:15.630Z,4.00
2023-03-13T03:49:48.451Z,3.58
2023-03-13T03:52:18.073Z,3.80
2023-03-13T03:54:46.985Z,3.85
2023-03-13T03:57:16.528Z,1.92
2023-03-13T03:59:46.652Z,5.95
2023-03-13T04:02:14.894Z,5.07
2023-03-13T04:04:44.968Z,3.60
2023-03-13T04:07:22.686Z,5.93
2023-03-13T04:09:51.774Z,4.38
2023-03-13T04:12:28.949Z,2.45
2023-03-13T04:14:58.634Z,3.85
2023-03-13T04:17:27.511Z,5.43
2023-03-13T04:19:59.230Z,5.90
2023-03-13T04:22:28.896Z,6.28
2023-03-13T04:25:01.416Z,4.93
2023-03-13T04:27:34.577Z,4.03
2023-03-13T04:30:04.488Z,3.72
2023-03-13T04:32:52.057Z,5.00
2023-03-13T04:35:40.650Z,4.57
2023-03-13T04:38:22.569Z,9.52
2023-03-13T04:40:58.410Z,6.72
2023-03-13T04:43:49.509Z,6.00
2023-03-13T04:46:41.316Z,5.43
2023-03-13T04:49:15.547Z,5.38
2023-03-13T04:51:44.275Z,7.05
2023-03-13T04:54:31.400Z,8.27
2023-03-13T04:57:14.764Z,13.38
2023-03-13T04:59:51.789Z,8.38
2023-03-13T05:02:47.404Z,8.80
2023-03-13T05:05:27.177Z,8.35
2023-03-13T05:08:15.704Z,5.15
2023-03-13T05:11:08.139Z,5.78
2023-03-13T05:13:56.546Z,8.82
2023-03-13T05:16:48.703Z,7.32
2023-03-13T05:19:51.720Z,8.20
2023-03-13T05:22:46.213Z,8.13
2023-03-13T05:25:33.649Z,6.88
2023-03-13T05:28:32.210Z,6.40
2023-03-13T05:31:26.540Z,9.35
2023-03-13T05:34:23.765Z,9.93
2023-03-13T05:37:03.969Z,9.63
2023-03-13T05:39:51.814Z,6.70
2023-03-13T05:42:31.033Z,8.90
2023-03-13T05:45:20.884Z,7.90
2023-03-13T05:47:51.656Z,5.40
2023-03-13T05:50:34.591Z,6.05
2023-03-13T05:53:33.560Z,4.57
2023-03-13T05:56:33.766Z,9.50
2023-03-13T05:59:15.910Z,9.70
2023-03-13T06:01:58.925Z,10.57
2023-03-13T06:04:33.287Z,5.95
2023-03-13T06:07:01.594Z,4.75
2023-03-13T06:09:29.987Z,6.63
2023-03-13T06:11:58.841Z,6.60
2023-03-13T06:14:27.962Z,4.82
2023-03-13T06:17:17.884Z,6.88
2023-03-13T06:19:47.833Z,5.10
2023-03-13T06:22:18.131Z,7.22
2023-03-13T06:24:48.974Z,8.45
2023-03-13T06:27:17.276Z,4.10
2023-03-13T06:29:45.742Z,5.38
2023-03-13T06:32:14.033Z,6.95
2023-03-13T06:34:43.595Z,5.78
2023-03-13T06:37:12.394Z,7.18
2023-03-13T06:39:40.588Z,6.25
2023-03-13T06:42:09.425Z,6.65
2023-03-13T06:44:37.751Z,5.68
2023-03-13T06:47:06.185Z,7.10
2023-03-13T06:49:34.560Z,4.95
2023-03-13T06:52:04.339Z,4.30
2023-03-13T06:54:32.478Z,4.82
2023-03-13T06:57:00.658Z,7.50
2023-03-13T06:59:29.516Z,7.13
2023-03-13T07:01:57.661Z,6.13
2023-03-13T07:04:25.944Z,7.80
2023-03-13T07:06:54.111Z,4.88
2023-03-13T07:09:23.644Z,7.35
2023-03-13T07:11:51.842Z,7.47
2023-03-13T07:14:20.069Z,9.50
2023-03-13T07:16:48.578Z,7.10
2023-03-13T07:19:17.173Z,5.88
2023-03-13T07:21:46.768Z,5.57
2023-03-13T07:24:14.994Z,10.15
2023-03-13T07:27:01.881Z,4.88
2023-03-13T07:29:32.710Z,5.28
2023-03-13T07:32:00.976Z,5.60
2023-03-13T07:34:29.311Z,7.85
2023-03-13T07:36:57.535Z,4.82
2023-03-13T07:39:26.108Z,7.95
2023-03-13T07:41:55.716Z,7.75
2023-03-13T07:44:23.839Z,4.55
2023-03-13T07:46:52.070Z,7.93
2023-03-13T07:49:20.320Z,7.20
2023-03-13T07:51:51.015Z,7.78
2023-03-13T07:54:19.207Z,3.92
2023-03-13T07:56:47.405Z,8.43
2023-03-13T07:59:16.989Z,2.95
2023-03-13T08:01:45.231Z,6.32
2023-03-13T08:04:15.064Z,4.30
2023-03-13T08:06:43.522Z,4.63
2023-03-13T08:09:11.747Z,4.43
2023-03-13T08:11:41.421Z,6.32
2023-03-13T08:14:10.002Z,4.05
2023-03-13T08:16:39.723Z,2.53
2023-03-13T08:19:07.884Z,4.70
2023-03-13T08:21:38.067Z,6.18
2023-03-13T08:24:08.225Z,6.15
2023-03-13T08:26:38.988Z,5.53
2023-03-13T08:29:11.865Z,7.95
2023-03-13T08:31:47.613Z,4.97
2023-03-13T08:34:17.174Z,7.80
2023-03-13T08:36:45.673Z,4.90
2023-03-13T08:39:15.370Z,6.55
2023-03-13T08:41:43.879Z,7.13
2023-03-13T08:44:13.770Z,6.15
2023-03-13T08:46:43.915Z,5.05
2023-03-13T08:49:13.378Z,5.03
2023-03-13T08:51:41.832Z,5.10
2023-03-13T08:54:11.912Z,4.97
2023-03-13T08:56:40.960Z,5.32
2023-03-13T08:59:09.167Z,4.72
2023-03-13T09:01:38.241Z,5.25
2023-03-13T09:04:09.028Z,3.53
2023-03-13T09:06:39.152Z,5.18
2023-03-13T09:09:08.605Z,3.53
2023-03-13T09:11:39.263Z,5.15
2023-03-13T09:14:08.534Z,6.68
2023-03-13T09:16:36.836Z,2.10
2023-03-13T09:19:05.442Z,3.17
2023-03-13T09:21:36.943Z,4.38
2023-03-13T09:24:07.878Z,2.92
2023-03-13T09:26:36.496Z,3.05
2023-03-13T09:29:05.009Z,3.20
2023-03-13T09:31:34.528Z,6.03
2023-03-13T09:34:03.006Z,7.43
2023-03-13T09:36:31.469Z,7.88
2023-03-13T09:39:01.954Z,2.38
2023-03-13T09:41:36.178Z,4.82
2023-03-13T09:44:11.921Z,4.78
2023-03-13T09:46:45.871Z,7.30
2023-03-13T09:49:24.366Z,5.38
2023-03-13T09:51:57.587Z,6.13
2023-03-13T09:54:33.937Z,2.75
2023-03-13T09:57:11.948Z,3.53
2023-03-13T09:59:48.421Z,5.32
2023-03-13T10:02:26.471Z,4.13
2023-03-13T10:04:59.264Z,4.50
2023-03-13T10:07:27.520Z,6.00
2023-03-13T10:09:57.135Z,5.28
2023-03-13T10:12:30.190Z,5.68
2023-03-13T10:15:18.496Z,0.85
2023-03-13T10:17:48.444Z,3.47
2023-03-13T10:20:25.042Z,4.05
2023-03-13T10:22:59.363Z,5.60
2023-03-13T10:25:33.488Z,5.28
2023-03-13T10:28:02.577Z,3.85
2023-03-13T10:30:32.851Z,4.43
2023-03-13T10:33:02.602Z,5.60
2023-03-13T10:35:36.950Z,2.92
2023-03-13T10:38:07.409Z,9.40
2023-03-13T10:40:37.381Z,3.03
2023-03-13T10:43:07.822Z,1.17
2023-03-13T10:45:37.853Z,2.85
2023-03-13T10:48:13.586Z,3.28
2023-03-13T10:50:45.716Z,3.78
2023-03-13T10:53:33.802Z,3.05
2023-03-13T10:56:14.004Z,4.53
2023-03-13T10:58:44.449Z,4.20
2023-03-13T11:01:22.731Z,6.50
2023-03-13T11:03:52.932Z,2.88
2023-03-13T11:06:30.477Z,4.40
2023-03-13T11:09:05.582Z,4.55
2023-03-13T11:11:45.201Z,4.00
2023-03-13T11:14:18.714Z,3.42
2023-03-13T11:16:51.475Z,4.20
2023-03-13T11:19:36.117Z,3.83
2023-03-13T11:22:29.517Z,5.97
2023-03-13T11:25:13.159Z,4.03
2023-03-13T11:27:51.671Z,2.65
2023-03-13T11:30:41.961Z,2.63
2023-03-13T11:33:19.145Z,4.43
2023-03-13T11:35:50.987Z,6.15
2023-03-13T11:38:24.227Z,9.50
2023-03-13T11:41:00.230Z,2.50
2023-03-13T11:43:45.237Z,6.53
2023-03-13T11:46:45.446Z,2.40
2023-03-13T11:49:27.546Z,2.70
2023-03-13T11:52:07.785Z,4.63
2023-03-13T11:54:51.441Z,2.55
2023-03-13T11:57:29.632Z,3.15
2023-03-13T12:00:23.905Z,3.70
2023-03-13T12:02:57.274Z,4.82
2023-03-13T12:05:28.822Z,2.50
2023-03-13T12:08:03.641Z,2.47
2023-03-13T12:10:39.629Z,2.83
2023-03-13T12:13:16.295Z,2.05
2023-03-13T12:15:49.733Z,1.98
2023-03-13T12:18:23.588Z,1.30
2023-03-13T12:20:57.637Z,1.80
2023-03-13T12:23:34.001Z,3.45
2023-03-13T12:26:07.483Z,2.85
2023-03-13T12:28:42.640Z,3.15
2023-03-13T12:31:21.043Z,0.82
2023-03-13T12:33:56.223Z,3.95
2023-03-13T12:36:30.662Z,6.93
2023-03-13T12:39:10.758Z,1.85
2023-03-13T12:41:43.415Z,1.42
2023-03-13T12:44:16.248Z,1.15
2023-03-13T12:46:56.959Z,1.63
2023-03-13T12:49:56.887Z,1.15
2023-03-13T12:52:49.525Z,1.33
2023-03-13T12:55:34.830Z,2.38
2023-03-13T12:58:14.906Z,2.25
2023-03-13T13:00:46.870Z,2.35
2023-03-13T13:03:30.386Z,1.38
2023-03-13T13:06:09.121Z,1.92
2023-03-13T13:08:42.447Z,2.03
2023-03-13T13:11:44.137Z,3.63
2023-03-13T13:14:55.428Z,2.55
2023-03-13T13:17:49.816Z,3.50
2023-03-13T13:20:31.501Z,1.50
2023-03-13T13:23:25.029Z,1.75
2023-03-13T13:25:55.224Z,3.08
2023-03-13T13:28:34.546Z,1.88
2023-03-13T13:31:03.184Z,2.40
2023-03-13T13:33:41.794Z,3.05
2023-03-13T13:36:31.947Z,2.80
2023-03-13T13:39:00.504Z,1.10
2023-03-13T13:41:41.462Z,2.45
2023-03-13T13:44:30.583Z,2.28
2023-03-13T13:47:01.850Z,4.50
2023-03-13T13:49:52.142Z,3.22
2023-03-13T13:52:42.682Z,2.55
2023-03-13T13:55:33.393Z,1.20
2023-03-13T13:58:05.366Z,5.40
2023-03-13T14:00:42.187Z,0.77
2023-03-13T14:03:21.064Z,5.07
2023-03-13T14:05:52.948Z,2.08
2023-03-13T14:08:27.663Z,1.55
2023-03-13T14:11:06.248Z,2.03
2023-03-13T14:13:34.455Z,1.55
2023-03-13T14:16:25.560Z,2.22
2023-03-13T14:19:02.913Z,3.60
2023-03-13T14:21:31.074Z,3.53
2023-03-13T14:24:00.655Z,1.80
2023-03-13T14:26:30.348Z,3.53
2023-03-13T14:29:01.104Z,2.35
2023-03-13T14:31:31.131Z,3.20
2023-03-13T14:34:00.950Z,3.05
2023-03-13T14:36:29.632Z,3.50
2023-03-13T14:39:01.168Z,4.38
2023-03-13T14:41:32.762Z,3.80
2023-03-13T14:44:06.346Z,3.35
2023-03-13T14:46:36.938Z,1.55
2023-03-13T14:49:14.480Z,1.83
2023-03-13T14:51:43.184Z,6.93
2023-03-13T14:54:31.068Z,3.78
2023-03-13T14:57:13.213Z,6.40
2023-03-13T14:59:43.059Z,4.65
2023-03-13T15:02:18.579Z,4.75
2023-03-13T15:05:03.829Z,2.03
2023-03-13T15:07:38.902Z,4.22
2023-03-13T15:10:22.522Z,2.83
2023-03-13T15:12:51.553Z,3.88
2023-03-13T15:15:20.155Z,3.85
2023-03-13T15:17:48.367Z,2.45
2023-03-13T15:20:17.479Z,3.47
2023-03-13T15:22:47.149Z,2.38
2023-03-13T15:25:17.878Z,3.97
2023-03-13T15:27:48.058Z,3.22
2023-03-13T15:30:17.560Z,4.75
2023-03-13T15:32:46.920Z,4.82
2023-03-13T15:35:27.217Z,3.25
2023-03-13T15:37:55.793Z,2.17
2023-03-13T15:40:25.311Z,5.22
2023-03-13T15:42:56.003Z,2.25
2023-03-13T15:45:24.377Z,6.95
2023-03-13T15:47:52.514Z,3.95
2023-03-13T15:50:22.362Z,4.38
2023-03-13T15:52:50.565Z,3.72
2023-03-13T15:55:18.815Z,1.75
2023-03-13T15:57:49.478Z,4.78
2023-03-13T16:00:21.366Z,2.42
2023-03-13T16:02:49.870Z,3.80
2023-03-13T16:05:18.633Z,2.42
2023-03-13T16:07:50.158Z,3.33
2023-03-13T16:10:22.047Z,5.68
2023-03-13T16:12:51.968Z,4.30
2023-03-13T16:15:21.978Z,6.32
2023-03-13T16:17:50.221Z,2.33
2023-03-13T16:20:20.893Z,4.43
2023-03-13T16:22:49.646Z,2.88
2023-03-13T16:25:18.587Z,3.42
2023-03-13T16:27:47.955Z,5.47
2023-03-13T16:30:19.352Z,4.65
2023-03-13T16:32:49.334Z,3.20
2023-03-13T16:35:17.734Z,3.13
2023-03-13T16:37:46.120Z,4.63
2023-03-13T16:40:17.335Z,5.45
2023-03-13T16:42:46.082Z,4.20
2023-03-13T16:45:14.722Z,6.00
2023-03-13T16:47:43.646Z,3.80
2023-03-13T16:50:26.760Z,4.78
2023-03-13T16:52:55.470Z,5.13
2023-03-13T16:55:28.330Z,8.20
2023-03-13T16:57:57.085Z,4.95
2023-03-13T17:00:29.357Z,4.93
2023-03-13T17:02:58.417Z,5.45
2023-03-13T17:05:30.596Z,4.07
2023-03-13T17:07:58.758Z,6.97
2023-03-13T17:10:28.907Z,8.13
2023-03-13T17:12:57.498Z,9.98
2023-03-13T17:15:26.631Z,7.22
2023-03-13T17:17:55.042Z,6.80
2023-03-13T17:20:25.181Z,4.50
2023-03-13T17:22:56.125Z,5.03
2023-03-13T17:25:25.073Z,5.47
2023-03-13T17:27:53.515Z,3.30
2023-03-13T17:30:24.377Z,5.03
2023-03-13T17:32:52.821Z,6.60
2023-03-13T17:35:21.952Z,4.85
2023-03-13T17:37:50.706Z,4.88
2023-03-13T17:40:21.883Z,5.80
2023-03-13T17:42:50.319Z,5.78
2023-03-13T17:45:19.148Z,6.70
2023-03-13T17:47:49.344Z,5.28
2023-03-13T17:50:20.544Z,5.10
2023-03-13T17:52:51.748Z,7.20
2023-03-13T17:55:21.327Z,12.85
2023-03-13T17:57:49.641Z,9.50
2023-03-13T18:00:27.004Z,11.55
2023-03-13T18:02:55.619Z,13.30
2023-03-13T18:05:23.821Z,16.08
2023-03-13T18:07:52.609Z,12.70
2023-03-13T18:10:24.484Z,13.27
2023-03-13T18:12:54.696Z,24.90
2023-03-13T18:15:24.348Z,31.38
2023-03-13T18:17:53.721Z,71.47
2023-03-13T18:20:24.272Z,33.80
2023-03-13T18:22:59.299Z,40.55
2023-03-13T18:25:29.596Z,37.70
2023-03-13T18:27:57.758Z,46.40
2023-03-13T18:30:27.057Z,55.33
2023-03-13T18:32:55.312Z,42.75
2023-03-13T18:35:23.542Z,55.92
2023-03-13T18:37:51.699Z,51.70
2023-03-13T18:40:21.402Z,61.70
2023-03-13T18:42:51.057Z,59.33
2023-03-13T18:45:21.469Z,67.68
2023-03-13T18:47:49.756Z,56.60
2023-03-13T18:50:24.581Z,58.33
2023-03-13T18:52:53.169Z,53.85
2023-03-13T18:55:21.318Z,42.38
2023-03-13T18:57:50.934Z,33.42
2023-03-13T19:00:21.417Z,15.77
2023-03-13T19:02:51.761Z,14.40
2023-03-13T19:05:20.951Z,12.65
2023-03-13T19:07:50.381Z,9.40
2023-03-13T19:10:21.577Z,11.85
2023-03-13T19:12:51.925Z,23.10
2023-03-13T19:15:21.722Z,23.65
2023-03-13T19:17:51.972Z,18.13
2023-03-13T19:20:22.195Z,21.35
2023-03-13T19:22:50.820Z,26.05
2023-03-13T19:25:20.878Z,20.00
2023-03-13T19:27:50.511Z,21.98
2023-03-13T19:30:20.653Z,21.13
2023-03-13T19:32:51.150Z,20.60
2023-03-13T19:35:21.630Z,13.13
2023-03-13T19:37:49.942Z,14.63
2023-03-13T19:40:21.934Z,11.85
2023-03-13T19:42:51.697Z,11.90
2023-03-13T19:45:21.764Z,16.42
2023-03-13T19:47:50.248Z,16.52
2023-03-13T19:50:20.615Z,15.45
2023-03-13T19:52:50.125Z,14.48
2023-03-13T19:55:18.506Z,11.38
2023-03-13T19:57:46.665Z,13.77
2023-03-13T20:00:21.349Z,10.88
2023-03-13T20:02:50.027Z,15.90
2023-03-13T20:05:18.629Z,28.20
2023-03-13T20:07:48.157Z,40.30
2023-03-13T20:10:16.653Z,43.30
2023-03-13T20:12:44.823Z,37.30
2023-03-13T20:15:13.409Z,41.75
2023-03-13T20:17:42.949Z,25.27
2023-03-13T20:20:13.580Z,7.53
2023-03-13T20:22:41.892Z,8.43
2023-03-13T20:25:10.906Z,9.52
2023-03-13T20:27:39.655Z,9.70
2023-03-13T20:30:09.228Z,14.23
2023-03-13T20:32:43.406Z,16.20
2023-03-13T20:35:20.210Z,32.47
2023-03-13T20:37:49.969Z,26.90
2023-03-13T20:40:18.553Z,18.70
2023-03-13T20:42:46.684Z,20.60
2023-03-13T20:45:18.353Z,30.80
2023-03-13T20:47:46.567Z,52.33
2023-03-13T20:50:14.781Z,55.97
2023-03-13T20:52:44.290Z,46.00
2023-03-13T20:55:12.413Z,42.78
2023-03-13T20:57:40.579Z,36.85
2023-03-13T21:00:12.324Z,38.28
2023-03-13T21:02:43.416Z,14.23
2023-03-13T21:05:11.610Z,18.33
2023-03-13T21:07:39.751Z,16.02
2023-03-13T21:10:10.764Z,15.65
2023-03-13T21:12:39.042Z,18.17
2023-03-13T21:15:09.116Z,16.25
2023-03-13T21:17:37.756Z,24.77
2023-03-13T21:20:11.578Z,22.02
2023-03-13T21:22:39.836Z,20.65
2023-03-13T21:25:11.759Z,17.80
2023-03-13T21:27:40.247Z,17.20
2023-03-13T21:30:13.782Z,18.00
2023-03-13T21:32:42.511Z,14.35
2023-03-13T21:35:12.481Z,11.82
2023-03-13T21:37:41.172Z,13.65
2023-03-13T21:40:12.609Z,14.68
2023-03-13T21:42:40.796Z,18.50
2023-03-13T21:45:10.369Z,12.90
2023-03-13T21:47:38.735Z,9.93
2023-03-13T21:50:09.929Z,12.65
2023-03-13T21:52:40.836Z,12.35
2023-03-13T21:55:13.378Z,10.52
2023-03-13T21:57:41.977Z,23.13
2023-03-13T22:00:13.883Z,25.27
2023-03-13T22:02:42.396Z,16.38
2023-03-13T22:05:11.492Z,9.82
2023-03-13T22:07:39.770Z,13.38
2023-03-13T22:10:10.858Z,9.13
2023-03-13T22:12:40.471Z,9.48
2023-03-13T22:15:10.135Z,13.50
2023-03-13T22:17:38.335Z,9.07
2023-03-13T22:20:08.569Z,9.85
2023-03-13T22:22:36.732Z,11.95
2023-03-13T22:25:05.458Z,19.48
2023-03-13T22:27:33.777Z,16.73
2023-03-13T22:30:03.345Z,11.88
2023-03-13T22:32:31.527Z,20.75
2023-03-13T22:34:59.727Z,13.18
2023-03-13T22:37:27.925Z,20.88
2023-03-13T22:39:58.854Z,15.63
2023-03-13T22:42:27.060Z,14.75
2023-03-13T22:44:55.812Z,9.63
2023-03-13T22:47:26.437Z,7.57
2023-03-13T22:49:54.862Z,8.32
2023-03-13T22:52:28.836Z,9.10
2023-03-13T22:54:57.280Z,11.82
2023-03-13T22:57:27.653Z,7.07
2023-03-13T22:59:55.956Z,4.57
2023-03-13T23:02:25.824Z,6.88
2023-03-13T23:04:57.629Z,12.85
2023-03-13T23:07:28.530Z,8.60
2023-03-13T23:09:57.557Z,9.57
2023-03-13T23:12:26.736Z,9.93
2023-03-13T23:14:55.759Z,8.98
2023-03-13T23:17:25.291Z,11.45
2023-03-13T23:19:53.619Z,12.93
2023-03-13T23:22:21.925Z,7.32
2023-03-13T23:24:50.601Z,9.82
2023-03-13T23:27:18.750Z,5.40
2023-03-13T23:29:47.141Z,10.00
2023-03-13T23:32:15.321Z,7.35
2023-03-13T23:34:44.911Z,8.60
2023-03-13T23:37:13.068Z,5.07
2023-03-13T23:39:41.268Z,4.88
2023-03-13T23:42:12.067Z,6.53
2023-03-13T23:44:40.262Z,5.78
2023-03-13T23:47:08.643Z,7.03
2023-03-13T23:49:36.798Z,6.75
2023-03-13T23:52:08.083Z,5.80
2023-03-13T23:54:36.424Z,5.30
2023-03-13T23:57:04.752Z,3.97
2023-03-13T23:59:33.244Z,5.50
